Time;durP1;ratioP1;P1;durP2;ratioP2;P2;SDS_P1;SDS_P2;PMS_P1;PMS_P2;Temp;Humidity;BMP_temperature;BMP_pressure;BME280_temperature;BME280_humidity;BME280_pressure;Samples;Min_cycle;Max_cycle;Signal;HPM_P1;HPM_P2
2023/04/24 00:01:31;;;;;;;1.08;0.90;;;10.70;99.90;;;;;;5021045;28;20075;-57
2023/04/24 00:03:59;;;;;;;1.10;0.93;;;10.70;99.90;;;;;;5038211;28;20033;-57
2023/04/24 00:06:34;;;;;;;1.30;0.90;;;10.70;99.90;;;;;;5039141;28;20041;-57
2023/04/24 00:09:00;;;;;;;0.85;0.82;;;10.70;99.90;;;;;;5004152;28;20111;-56
2023/04/24 00:11:26;;;;;;;1.63;1.15;;;10.60;99.90;;;;;;5039158;28;20041;-58
2023/04/24 00:13:52;;;;;;;2.05;1.17;;;10.60;99.90;;;;;;5037938;28;20057;-55
2023/04/24 00:16:18;;;;;;;1.20;1.10;;;10.60;99.90;;;;;;5038330;28;20049;-58
2023/04/24 00:18:44;;;;;;;1.20;1.10;;;10.70;99.90;;;;;;5038634;28;20033;-58
2023/04/24 00:21:10;;;;;;;1.90;1.38;;;10.60;99.90;;;;;;5038339;28;20405;-58
2023/04/24 00:23:36;;;;;;;3.28;1.25;;;10.60;99.90;;;;;;5020989;28;20056;-57
2023/04/24 00:26:02;;;;;;;2.25;1.60;;;10.60;99.90;;;;;;5020677;28;20042;-56
2023/04/24 00:28:28;;;;;;;1.60;1.40;;;10.60;99.90;;;;;;5020904;28;20045;-57
2023/04/24 00:30:54;;;;;;;1.17;1.08;;;10.60;99.90;;;;;;5038684;28;20091;-59
2023/04/24 00:33:20;;;;;;;1.63;1.50;;;10.60;99.90;;;;;;5038089;28;20042;-57
2023/04/24 00:35:45;;;;;;;2.10;1.60;;;10.60;99.90;;;;;;5038823;28;20052;-57
2023/04/24 00:38:11;;;;;;;1.95;1.73;;;10.60;99.90;;;;;;5037989;28;20038;-57
2023/04/24 00:40:37;;;;;;;2.50;1.60;;;10.60;99.90;;;;;;5038692;28;20097;-57
2023/04/24 00:43:03;;;;;;;2.40;2.20;;;10.60;99.90;;;;;;5037433;28;20045;-56
2023/04/24 00:45:31;;;;;;;2.65;2.35;;;10.60;99.90;;;;;;5039043;28;20097;-58
2023/04/24 00:47:57;;;;;;;3.25;1.98;;;10.60;99.90;;;;;;5038487;28;20049;-57
2023/04/24 00:50:24;;;;;;;3.80;2.15;;;10.50;99.90;;;;;;5040792;28;20071;-57
2023/04/24 00:52:50;;;;;;;2.80;2.42;;;10.50;99.90;;;;;;5042399;28;20485;-57
2023/04/24 00:55:16;;;;;;;3.58;2.78;;;10.60;99.90;;;;;;5041457;28;20041;-57
2023/04/24 00:57:43;;;;;;;4.75;2.90;;;10.50;99.90;;;;;;5042304;28;20041;-57
2023/04/24 01:00:10;;;;;;;2.80;2.60;;;10.50;99.90;;;;;;5041585;28;20081;-57
2023/04/24 01:02:43;;;;;;;2.95;2.75;;;10.60;99.90;;;;;;5042635;28;20042;-57
2023/04/24 01:05:12;;;;;;;2.85;2.50;;;10.60;99.90;;;;;;5042215;28;20075;-58
2023/04/24 01:07:39;;;;;;;3.95;3.22;;;10.60;99.90;;;;;;5041489;28;20084;-58
2023/04/24 01:10:05;;;;;;;3.60;2.97;;;10.60;99.90;;;;;;5041596;28;20049;-58
2023/04/24 01:12:32;;;;;;;3.50;3.20;;;10.60;99.90;;;;;;5040861;28;20061;-57
2023/04/24 01:14:58;;;;;;;3.30;2.72;;;10.60;99.90;;;;;;5041612;28;20053;-57
2023/04/24 01:17:24;;;;;;;5.90;2.80;;;10.60;99.90;;;;;;5041584;28;20072;-57
2023/04/24 01:19:49;;;;;;;4.95;2.80;;;10.60;99.90;;;;;;5042192;28;20095;-55
2023/04/24 01:22:16;;;;;;;3.65;3.13;;;10.60;99.90;;;;;;5041941;28;20123;-57
2023/04/24 01:24:42;;;;;;;6.03;2.80;;;10.50;99.90;;;;;;5041110;28;20038;-57
2023/04/24 01:27:10;;;;;;;2.83;2.55;;;10.50;99.90;;;;;;5023774;28;20409;-57
2023/04/24 01:29:35;;;;;;;3.20;2.72;;;10.50;99.90;;;;;;5040958;28;20073;-58
2023/04/24 01:32:02;;;;;;;3.63;2.47;;;10.50;99.90;;;;;;5023870;28;20049;-57
2023/04/24 01:34:28;;;;;;;2.90;2.70;;;10.40;99.90;;;;;;5041315;28;20072;-57
2023/04/24 01:36:54;;;;;;;2.80;2.60;;;10.40;99.90;;;;;;5041919;28;20449;-57
2023/04/24 01:39:20;;;;;;;2.70;2.50;;;10.40;99.90;;;;;;5023508;28;20053;-57
2023/04/24 01:41:46;;;;;;;2.55;2.35;;;10.40;99.90;;;;;;5041234;28;20053;-57
2023/04/24 01:44:12;;;;;;;2.50;2.30;;;10.40;99.90;;;;;;5040761;28;20044;-58
2023/04/24 01:46:38;;;;;;;2.75;2.13;;;10.40;99.90;;;;;;5040976;28;20037;-57
2023/04/24 01:49:04;;;;;;;2.20;2.00;;;10.30;99.90;;;;;;5041344;28;20655;-57
2023/04/24 01:51:30;;;;;;;2.03;1.83;;;10.30;99.90;;;;;;5040918;28;20041;-57
2023/04/24 01:53:55;;;;;;;2.83;2.30;;;10.30;99.90;;;;;;5041273;28;20049;-56
2023/04/24 01:56:22;;;;;;;3.08;2.30;;;10.20;99.90;;;;;;5041003;28;20056;-56
2023/04/24 01:58:49;;;;;;;2.13;1.88;;;10.20;99.90;;;;;;5041220;28;20037;-56
2023/04/24 02:01:23;;;;;;;2.10;1.90;;;10.20;99.90;;;;;;5039724;28;20042;-57
2023/04/24 02:03:48;;;;;;;2.35;2.15;;;10.20;99.90;;;;;;5040509;28;20088;-57
2023/04/24 02:06:14;;;;;;;2.95;2.10;;;10.20;99.90;;;;;;5041229;28;20045;-55
2023/04/24 02:08:40;;;;;;;2.05;1.85;;;10.20;99.90;;;;;;5040306;28;20049;-57
2023/04/24 02:11:06;;;;;;;2.95;2.08;;;10.10;99.90;;;;;;5041555;28;20045;-58
2023/04/24 02:13:31;;;;;;;2.30;1.90;;;10.10;99.90;;;;;;5040117;28;20452;-58
2023/04/24 02:15:58;;;;;;;2.00;1.45;;;10.10;99.90;;;;;;5040791;28;20053;-57
2023/04/24 02:18:24;;;;;;;2.25;1.88;;;10.10;99.90;;;;;;5040645;28;20513;-57
2023/04/24 02:20:50;;;;;;;4.75;1.70;;;10.10;99.90;;;;;;5022301;28;20045;-57
2023/04/24 02:23:16;;;;;;;2.38;1.80;;;10.00;99.90;;;;;;5040578;28;20099;-57
2023/04/24 02:25:41;;;;;;;2.25;1.70;;;10.00;99.90;;;;;;5022301;28;20080;-57
2023/04/24 02:28:07;;;;;;;2.83;1.70;;;9.90;99.90;;;;;;5041076;28;20103;-58
2023/04/24 02:30:33;;;;;;;1.98;1.35;;;10.00;99.90;;;;;;5040096;28;20334;-57
2023/04/24 02:32:58;;;;;;;1.48;1.30;;;10.00;99.90;;;;;;5040642;28;20034;-57
2023/04/24 02:35:24;;;;;;;1.58;1.42;;;10.00;99.90;;;;;;5040267;28;20048;-55
2023/04/24 02:37:50;;;;;;;1.40;1.20;;;10.00;99.90;;;;;;5039836;28;20412;-57
2023/04/24 02:40:15;;;;;;;1.40;1.20;;;10.10;99.90;;;;;;5040557;28;20077;-56
2023/04/24 02:42:41;;;;;;;1.38;1.23;;;10.00;99.90;;;;;;5039670;28;20079;-59
2023/04/24 02:45:07;;;;;;;1.50;1.15;;;10.00;99.90;;;;;;5040474;28;20045;-57
2023/04/24 02:47:33;;;;;;;1.52;1.38;;;10.00;99.90;;;;;;5040069;28;20113;-57
2023/04/24 02:49:58;;;;;;;1.88;1.40;;;10.00;99.90;;;;;;5040261;28;20030;-57
2023/04/24 02:52:24;;;;;;;2.28;1.52;;;10.00;99.90;;;;;;5022375;28;20037;-56
2023/04/24 02:54:50;;;;;;;1.90;1.40;;;10.00;99.90;;;;;;5039513;28;20045;-55
2023/04/24 02:57:15;;;;;;;2.58;1.42;;;10.00;99.90;;;;;;5040135;28;20038;-58
2023/04/24 02:59:41;;;;;;;1.80;1.30;;;10.00;99.90;;;;;;5039306;28;20095;-56
2023/04/24 03:02:07;;;;;;;1.70;1.20;;;10.00;99.90;;;;;;5040215;28;20045;-57
2023/04/24 03:04:32;;;;;;;2.10;1.30;;;9.90;99.90;;;;;;5039509;28;20401;-56
2023/04/24 03:06:58;;;;;;;1.73;1.15;;;9.90;99.90;;;;;;5040228;28;20052;-57
2023/04/24 03:09:24;;;;;;;1.65;1.08;;;9.90;99.90;;;;;;5039818;28;20046;-57
2023/04/24 03:11:50;;;;;;;1.70;1.17;;;9.90;99.90;;;;;;5039021;28;20045;-58
2023/04/24 03:14:16;;;;;;;1.00;0.90;;;10.00;99.90;;;;;;5038949;28;20053;-58
2023/04/24 03:16:42;;;;;;;0.60;0.60;;;10.00;99.90;;;;;;5039005;28;20050;-58
2023/04/24 03:19:08;;;;;;;1.42;1.00;;;9.90;99.90;;;;;;5039852;28;20068;-58
2023/04/24 03:21:35;;;;;;;1.30;1.20;;;10.00;99.90;;;;;;5039186;28;20496;-58
2023/04/24 03:24:02;;;;;;;2.58;1.10;;;10.00;99.90;;;;;;5039955;28;20045;-57
2023/04/24 03:26:27;;;;;;;0.80;0.68;;;10.00;99.90;;;;;;5039671;28;20120;-57
2023/04/24 03:28:53;;;;;;;0.80;0.80;;;10.00;99.90;;;;;;5038907;28;20099;-57
2023/04/24 03:31:20;;;;;;;2.40;0.90;;;10.00;99.90;;;;;;5039318;28;20096;-57
2023/04/24 03:33:46;;;;;;;1.08;0.77;;;9.90;99.90;;;;;;5038951;28;20389;-57
2023/04/24 03:36:12;;;;;;;0.60;0.60;;;9.90;99.90;;;;;;5039495;28;20045;-56
2023/04/24 03:38:38;;;;;;;0.43;0.40;;;9.90;99.90;;;;;;5020968;28;20045;-56
2023/04/24 03:41:03;;;;;;;0.57;0.40;;;9.90;99.90;;;;;;5039748;28;20056;-56
2023/04/24 03:43:29;;;;;;;0.75;0.40;;;9.80;99.90;;;;;;5038614;28;20046;-57
2023/04/24 03:45:55;;;;;;;1.13;0.60;;;9.80;99.90;;;;;;5039149;28;20056;-56
2023/04/24 03:48:20;;;;;;;0.75;0.32;;;9.70;99.90;;;;;;5021203;28;20041;-57
2023/04/24 03:50:46;;;;;;;0.73;0.50;;;9.60;99.90;;;;;;5038502;28;20057;-56
2023/04/24 03:53:12;;;;;;;0.50;0.40;;;9.60;99.90;;;;;;5039253;28;20061;-58
2023/04/24 03:55:37;;;;;;;1.25;0.50;;;9.50;99.90;;;;;;5038516;28;20056;-57
2023/04/24 03:58:03;;;;;;;1.17;0.50;;;9.50;99.90;;;;;;5039530;28;20037;-57
2023/04/24 04:00:31;;;;;;;1.10;0.60;;;9.50;99.90;;;;;;5038660;28;20037;-57
2023/04/24 04:02:57;;;;;;;1.05;0.70;;;9.40;99.90;;;;;;5038941;28;20475;-57
2023/04/24 04:05:22;;;;;;;0.75;0.73;;;9.40;99.90;;;;;;5038981;28;20042;-58
2023/04/24 04:07:48;;;;;;;1.10;0.77;;;9.40;99.90;;;;;;5038447;28;20042;-57
2023/04/24 04:10:14;;;;;;;1.30;0.80;;;9.40;99.90;;;;;;5038759;28;20072;-57
2023/04/24 04:12:39;;;;;;;1.50;0.57;;;9.30;99.90;;;;;;5037811;28;20114;-58
2023/04/24 04:15:06;;;;;;;3.30;0.80;;;9.40;99.90;;;;;;5021085;28;20050;-57
2023/04/24 04:17:32;;;;;;;2.25;0.80;;;9.30;99.90;;;;;;5038479;28;20048;-57
2023/04/24 04:19:58;;;;;;;1.15;0.90;;;9.30;99.90;;;;;;5038857;28;20045;-56
2023/04/24 04:22:23;;;;;;;1.00;0.90;;;9.30;99.90;;;;;;5004814;28;20055;-58
2023/04/24 04:24:50;;;;;;;3.78;1.20;;;9.30;99.90;;;;;;5040328;28;20073;-58
2023/04/24 04:27:18;;;;;;;1.30;1.10;;;9.30;99.90;;;;;;5042885;28;20053;-57
2023/04/24 04:29:44;;;;;;;1.38;1.00;;;9.30;99.90;;;;;;5042303;28;20045;-58
2023/04/24 04:32:10;;;;;;;1.15;0.70;;;9.30;99.90;;;;;;5043023;28;20046;-57
2023/04/24 04:34:37;;;;;;;2.28;1.23;;;10.10;99.90;;;;;;5024777;28;20125;-57
2023/04/24 04:37:03;;;;;;;2.10;1.33;;;9.30;99.90;;;;;;5025488;28;20088;-57
2023/04/24 04:39:29;;;;;;;2.10;1.70;;;9.30;99.90;;;;;;5042959;28;20030;-58
2023/04/24 04:41:55;;;;;;;3.90;2.38;;;9.40;99.90;;;;;;5042164;28;20096;-59
2023/04/24 04:44:21;;;;;;;3.45;2.58;;;9.40;99.90;;;;;;5042253;28;20065;-60
2023/04/24 04:46:47;;;;;;;5.35;3.58;;;9.50;99.90;;;;;;5024210;28;20100;-59
2023/04/24 04:49:13;;;;;;;5.32;4.07;;;9.60;99.90;;;;;;5025122;28;20049;-58
2023/04/24 04:51:38;;;;;;;5.18;3.88;;;9.70;99.90;;;;;;5024444;28;20104;-57
2023/04/24 04:54:04;;;;;;;6.55;4.45;;;9.70;99.90;;;;;;5042476;28;20044;-58
2023/04/24 04:56:30;;;;;;;5.97;4.13;;;9.80;99.90;;;;;;5042335;28;20041;-57
2023/04/24 04:58:56;;;;;;;6.57;4.60;;;9.80;99.90;;;;;;5023975;28;20053;-66
2023/04/24 05:01:22;;;;;;;10.73;6.63;;;9.80;99.90;;;;;;5024236;28;20041;-62
2023/04/24 05:03:48;;;;;;;6.35;4.88;;;9.80;99.90;;;;;;5041524;28;20057;-63
2023/04/24 05:06:14;;;;;;;7.05;4.90;;;9.90;99.90;;;;;;5042252;28;20443;-62
2023/04/24 05:08:40;;;;;;;7.80;5.40;;;9.90;99.90;;;;;;5041677;28;20076;-62
2023/04/24 05:11:06;;;;;;;11.13;5.80;;;9.90;99.90;;;;;;5042372;28;20042;-63
2023/04/24 05:13:32;;;;;;;8.63;6.07;;;9.80;99.90;;;;;;5041233;28;20054;-65
2023/04/24 05:15:58;;;;;;;7.40;5.38;;;9.90;99.90;;;;;;5041635;28;20045;-66
2023/04/24 05:18:23;;;;;;;7.30;4.80;;;10.60;99.90;;;;;;5024032;28;20072;-65
2023/04/24 05:20:49;;;;;;;6.95;4.40;;;9.90;99.90;;;;;;5041398;28;20056;-66
2023/04/24 05:23:15;;;;;;;6.53;5.03;;;9.90;99.90;;;;;;5041924;28;20394;-65
2023/04/24 05:25:41;;;;;;;10.32;6.03;;;9.90;99.90;;;;;;5041336;28;20045;-64
2023/04/24 05:28:07;;;;;;;8.43;5.43;;;9.90;99.90;;;;;;5042213;28;20117;-65
2023/04/24 05:30:32;;;;;;;8.95;5.78;;;9.90;99.90;;;;;;5041324;28;20151;-65
2023/04/24 05:32:58;;;;;;;10.15;6.68;;;9.90;99.90;;;;;;5041504;28;20077;-63
2023/04/24 05:35:24;;;;;;;7.80;6.40;;;9.90;99.90;;;;;;5041255;28;20133;-65
2023/04/24 05:37:49;;;;;;;10.35;6.43;;;9.90;99.90;;;;;;5041105;28;20052;-64
2023/04/24 05:40:15;;;;;;;8.93;6.85;;;9.90;99.90;;;;;;5024027;28;20056;-66
2023/04/24 05:42:41;;;;;;;10.98;6.72;;;9.90;99.90;;;;;;5040734;28;20041;-64
2023/04/24 05:45:07;;;;;;;8.52;5.65;;;9.90;99.90;;;;;;5041409;28;20055;-64
2023/04/24 05:47:33;;;;;;;6.38;5.13;;;9.90;99.90;;;;;;5041118;28;20160;-65
2023/04/24 05:49:58;;;;;;;6.43;4.63;;;9.90;99.90;;;;;;5041301;28;20053;-63
2023/04/24 05:52:24;;;;;;;7.65;4.93;;;9.90;99.90;;;;;;5041443;28;20037;-66
2023/04/24 05:54:50;;;;;;;6.00;4.78;;;9.90;99.90;;;;;;5022672;28;20042;-65
2023/04/24 05:57:15;;;;;;;6.97;4.43;;;9.80;99.90;;;;;;5041346;28;20403;-66
2023/04/24 05:59:41;;;;;;;6.68;4.25;;;9.80;99.90;;;;;;5040241;28;20037;-65
2023/04/24 06:02:07;;;;;;;7.68;4.40;;;9.80;99.90;;;;;;5041450;28;20042;-65
2023/04/24 06:04:33;;;;;;;5.22;4.07;;;9.80;99.90;;;;;;5040800;28;20052;-65
2023/04/24 06:06:59;;;;;;;5.65;3.92;;;9.80;99.90;;;;;;5041147;28;20049;-66
2023/04/24 06:09:25;;;;;;;5.53;3.95;;;9.80;99.90;;;;;;5040921;28;20597;-66
2023/04/24 06:11:56;;;;;;;6.18;3.80;;;9.80;99.90;;;;;;5040411;28;20049;-64
2023/04/24 06:14:22;;;;;;;6.63;3.40;;;9.80;99.90;;;;;;5039805;28;20088;-64
2023/04/24 06:16:47;;;;;;;8.50;3.75;;;9.80;99.90;;;;;;5040442;28;20041;-64
2023/04/24 06:19:13;;;;;;;7.38;3.58;;;9.80;99.90;;;;;;5040982;28;20077;-63
2023/04/24 06:21:39;;;;;;;7.32;4.10;;;9.80;99.90;;;;;;5040661;28;20585;-63
2023/04/24 06:24:04;;;;;;;6.57;3.75;;;9.80;99.90;;;;;;5040834;28;20049;-62
2023/04/24 06:26:30;;;;;;;6.05;3.55;;;9.80;99.90;;;;;;5040863;28;20045;-64
2023/04/24 06:28:58;;;;;;;8.07;3.92;;;9.10;99.90;;;;;;5039893;28;20056;-63
2023/04/24 06:31:24;;;;;;;8.32;4.22;;;9.70;99.90;;;;;;5040365;28;20042;-65
2023/04/24 06:33:49;;;;;;;7.93;4.68;;;9.70;99.90;;;;;;5039788;28;20080;-63
2023/04/24 06:36:16;;;;;;;8.13;4.07;;;9.70;99.90;;;;;;5040722;28;20057;-64
2023/04/24 06:38:42;;;;;;;7.32;4.38;;;9.70;99.90;;;;;;5040021;28;20047;-63
2023/04/24 06:41:07;;;;;;;8.95;4.47;;;9.70;99.90;;;;;;5040800;28;20120;-63
2023/04/24 06:43:33;;;;;;;10.23;4.65;;;9.70;99.90;;;;;;5039665;28;20120;-64
2023/04/24 06:46:00;;;;;;;11.60;5.53;;;9.70;99.90;;;;;;5039684;28;20528;-61
2023/04/24 06:48:26;;;;;;;10.48;5.50;;;9.70;99.90;;;;;;5039519;28;20061;-60
2023/04/24 06:50:52;;;;;;;13.15;6.10;;;9.70;99.90;;;;;;5039659;28;20080;-59
2023/04/24 06:53:18;;;;;;;9.45;5.80;;;9.70;99.90;;;;;;5040219;28;20048;-59
2023/04/24 06:55:45;;;;;;;10.23;6.55;;;9.70;99.90;;;;;;5039615;28;20097;-58
2023/04/24 06:58:12;;;;;;;11.90;5.90;;;9.70;99.90;;;;;;5040285;28;20049;-58
2023/04/24 07:00:37;;;;;;;12.00;6.72;;;9.70;99.90;;;;;;5039815;28;20052;-58
2023/04/24 07:03:07;;;;;;;10.52;6.68;;;9.70;99.90;;;;;;5039673;28;20046;-59
2023/04/24 07:05:35;;;;;;;11.50;6.72;;;9.80;99.90;;;;;;5021988;28;20183;-59
2023/04/24 07:08:01;;;;;;;10.15;6.20;;;9.70;99.90;;;;;;5021827;28;20056;-59
2023/04/24 07:10:28;;;;;;;12.68;6.45;;;9.70;99.90;;;;;;5039785;28;20042;-60
2023/04/24 07:12:56;;;;;;;9.20;5.70;;;9.70;99.90;;;;;;5038599;28;20452;-61
2023/04/24 07:15:21;;;;;;;10.00;6.03;;;9.70;99.90;;;;;;5039842;28;20042;-60
2023/04/24 07:17:47;;;;;;;10.27;6.22;;;9.70;99.90;;;;;;5039702;28;20075;-60
2023/04/24 07:20:14;;;;;;;9.77;5.72;;;9.70;99.90;;;;;;5039240;28;20101;-63
2023/04/24 07:22:40;;;;;;;11.38;5.88;;;9.70;99.90;;;;;;5039543;28;20041;-63
2023/04/24 07:25:06;;;;;;;10.35;5.30;;;9.70;99.90;;;;;;5038691;28;20137;-63
2023/04/24 07:27:33;;;;;;;9.77;6.15;;;9.70;99.90;;;;;;5039946;28;20093;-62
2023/04/24 07:29:59;;;;;;;8.20;4.80;;;9.70;99.90;;;;;;5038433;28;20038;-60
2023/04/24 07:32:25;;;;;;;10.63;4.97;;;9.70;99.90;;;;;;5039789;28;20105;-59
2023/04/24 07:34:50;;;;;;;6.95;4.47;;;9.70;99.90;;;;;;5039104;28;20083;-58
2023/04/24 07:37:16;;;;;;;9.30;4.50;;;9.70;99.90;;;;;;5039248;28;20041;-58
2023/04/24 07:39:42;;;;;;;9.63;4.13;;;9.70;99.90;;;;;;5039013;28;20478;-58
2023/04/24 07:42:08;;;;;;;6.70;3.60;;;9.70;99.90;;;;;;5038823;28;20064;-59
2023/04/24 07:44:33;;;;;;;8.70;3.92;;;9.70;99.90;;;;;;5038829;28;20072;-59
2023/04/24 07:46:59;;;;;;;11.02;4.88;;;9.70;99.90;;;;;;5038597;28;20041;-60
2023/04/24 07:49:28;;;;;;;10.07;5.20;;;9.70;99.90;;;;;;5006337;28;20041;-60
2023/04/24 07:51:54;;;;;;;10.75;5.57;;;9.70;99.90;;;;;;5038935;28;20048;-61
2023/04/24 07:54:19;;;;;;;13.55;7.82;;;9.70;99.90;;;;;;5038545;28;20045;-59
2023/04/24 07:56:45;;;;;;;17.40;8.57;;;9.70;99.90;;;;;;5039164;28;20042;-59
2023/04/24 07:59:11;;;;;;;15.52;8.40;;;9.70;99.90;;;;;;5038279;28;20073;-59
2023/04/24 08:01:37;;;;;;;13.00;7.65;;;9.60;99.90;;;;;;5021292;28;20045;-58
2023/04/24 08:04:03;;;;;;;16.77;9.70;;;9.70;99.90;;;;;;5038347;28;20120;-58
2023/04/24 08:06:30;;;;;;;28.90;14.10;;;9.60;99.90;;;;;;5039402;28;20088;-58
2023/04/24 08:08:59;;;;;;;24.45;13.32;;;9.60;99.90;;;;;;5038500;28;20109;-58
2023/04/24 08:11:26;;;;;;;33.75;14.85;;;9.50;99.90;;;;;;5038752;28;20505;-59
2023/04/24 08:13:51;;;;;;;23.75;12.95;;;9.50;99.90;;;;;;5038345;28;20136;-58
2023/04/24 08:16:17;;;;;;;25.58;13.50;;;9.50;99.90;;;;;;5038214;28;20034;-58
2023/04/24 08:18:43;;;;;;;28.40;12.98;;;9.40;99.90;;;;;;5020999;28;20049;-58
2023/04/24 08:21:08;;;;;;;28.92;13.68;;;9.40;99.90;;;;;;5038397;28;20128;-58
2023/04/24 08:23:34;;;;;;;24.58;14.10;;;9.40;99.90;;;;;;5038946;28;20042;-58
2023/04/24 08:26:00;;;;;;;28.67;16.40;;;9.40;99.90;;;;;;5038472;28;20064;-58
2023/04/24 08:28:25;;;;;;;26.55;15.63;;;9.40;99.90;;;;;;5020824;28;20049;-59
2023/04/24 08:30:54;;;;;;;26.52;15.02;;;9.30;99.90;;;;;;5038592;28;20389;-57
2023/04/24 08:33:23;;;;;;;29.75;15.60;;;9.30;99.90;;;;;;5037944;28;20045;-59
2023/04/24 08:35:49;;;;;;;23.05;15.30;;;9.30;99.90;;;;;;5038767;28;20063;-59
2023/04/24 08:38:16;;;;;;;29.83;15.50;;;9.20;99.90;;;;;;5037961;28;20262;-59
2023/04/24 08:40:43;;;;;;;28.02;14.98;;;9.20;99.90;;;;;;5021322;28;20083;-58
2023/04/24 08:43:10;;;;;;;27.00;14.80;;;9.10;99.90;;;;;;5037753;28;20105;-59
2023/04/24 08:45:36;;;;;;;29.90;13.63;;;9.20;99.90;;;;;;5038763;28;20056;-59
2023/04/24 08:48:04;;;;;;;25.25;13.73;;;9.10;99.90;;;;;;5038482;28;20041;-59
2023/04/24 08:50:30;;;;;;;21.15;12.75;;;9.20;99.90;;;;;;5037588;28;20037;-59
2023/04/24 08:52:57;;;;;;;22.38;12.07;;;9.20;99.90;;;;;;5038547;28;20042;-59
2023/04/24 08:55:24;;;;;;;22.35;12.75;;;9.20;99.90;;;;;;5037777;28;20037;-60
2023/04/24 08:57:52;;;;;;;19.77;11.73;;;9.20;99.90;;;;;;5021383;28;20037;-59
2023/04/24 09:00:19;;;;;;;20.05;11.80;;;9.30;99.90;;;;;;5038143;28;20084;-59
2023/04/24 09:02:48;;;;;;;24.30;11.90;;;9.20;99.90;;;;;;5020526;28;20156;-59
2023/04/24 09:05:17;;;;;;;17.55;10.82;;;9.30;99.90;;;;;;5020290;28;20033;-60
2023/04/24 09:07:47;;;;;;;24.85;10.90;;;9.30;99.90;;;;;;5037574;28;20045;-59
2023/04/24 09:10:13;;;;;;;17.27;10.13;;;9.30;99.90;;;;;;5039265;28;20049;-59
2023/04/24 09:12:40;;;;;;;17.92;10.02;;;9.40;99.90;;;;;;5023601;28;20052;-59
2023/04/24 09:15:08;;;;;;;20.27;11.23;;;9.40;99.90;;;;;;5041948;28;20497;-59
2023/04/24 09:17:34;;;;;;;18.50;11.18;;;9.50;99.90;;;;;;5041926;28;20041;-59
2023/04/24 09:19:59;;;;;;;22.05;11.32;;;9.50;99.90;;;;;;5023986;28;20109;-59
2023/04/24 09:22:28;;;;;;;16.75;9.30;;;9.60;99.90;;;;;;5024120;28;20045;-59
2023/04/24 09:25:12;;;;;;;20.67;9.05;;;9.70;99.90;;;;;;5041101;28;20584;-59
2023/04/24 09:27:46;;;;;;;13.45;8.07;;;9.80;99.90;;;;;;5041998;28;20041;-59
2023/04/24 09:30:12;;;;;;;12.57;6.80;;;9.80;99.90;;;;;;5040721;28;20042;-58
2023/04/24 09:32:38;;;;;;;12.68;6.65;;;9.10;99.90;;;;;;5024086;28;20069;-59
2023/04/24 09:35:15;;;;;;;12.45;6.18;;;9.80;99.90;;;;;;5041833;28;20549;-59
2023/04/24 09:37:48;;;;;;;10.20;5.63;;;9.80;99.90;;;;;;5040897;28;20045;-60
2023/04/24 09:40:18;;;;;;;12.18;5.97;;;9.80;99.90;;;;;;5041417;28;20053;-60
2023/04/24 09:42:45;;;;;;;14.75;5.82;;;9.80;99.90;;;;;;5040380;28;20045;-61
2023/04/24 09:45:11;;;;;;;13.48;6.10;;;9.80;99.90;;;;;;5041774;28;20040;-59
2023/04/24 09:47:40;;;;;;;16.75;5.82;;;9.90;99.90;;;;;;5023469;28;20078;-60
2023/04/24 09:50:11;;;;;;;13.60;6.00;;;9.90;99.90;;;;;;5023031;28;20124;-60
2023/04/24 09:52:44;;;;;;;14.70;6.28;;;9.90;99.90;;;;;;5041271;28;20049;-61
2023/04/24 09:55:19;;;;;;;15.05;5.07;;;9.80;99.90;;;;;;5040526;28;20045;-61
2023/04/24 09:58:04;;;;;;;13.32;4.97;;;9.80;99.90;;;;;;5041748;28;20212;-61
2023/04/24 10:00:32;;;;;;;12.82;3.35;;;9.70;99.90;;;;;;5040839;28;20053;-61
2023/04/24 10:03:00;;;;;;;8.13;3.13;;;9.60;99.90;;;;;;5040828;28;20057;-60
2023/04/24 10:05:34;;;;;;;11.43;3.50;;;9.50;99.90;;;;;;5040779;28;20651;-60
2023/04/24 10:08:08;;;;;;;10.25;2.90;;;9.40;99.90;;;;;;5040558;28;20077;-60
2023/04/24 10:10:38;;;;;;;9.70;3.60;;;9.30;99.90;;;;;;5041050;28;20042;-60
2023/04/24 10:13:04;;;;;;;8.52;3.10;;;9.20;99.90;;;;;;5040139;28;20056;-59
2023/04/24 10:15:30;;;;;;;8.73;3.10;;;9.20;99.90;;;;;;5040831;28;20056;-59
2023/04/24 10:17:58;;;;;;;9.00;3.00;;;9.30;99.90;;;;;;5022921;28;20049;-59
2023/04/24 10:20:26;;;;;;;12.18;3.17;;;9.20;99.90;;;;;;5022090;28;20252;-59
2023/04/24 10:22:54;;;;;;;13.00;3.58;;;9.30;99.90;;;;;;5039559;28;20073;-59
2023/04/24 10:25:21;;;;;;;12.98;3.78;;;9.30;99.90;;;;;;5040030;28;20041;-59
2023/04/24 10:27:49;;;;;;;9.35;4.00;;;9.40;99.90;;;;;;5041195;28;20045;-59
2023/04/24 10:30:15;;;;;;;8.02;4.15;;;9.40;99.90;;;;;;5040111;28;20037;-58
2023/04/24 10:32:41;;;;;;;10.90;3.78;;;9.50;99.90;;;;;;5022721;28;20045;-58
2023/04/24 10:35:08;;;;;;;13.38;3.75;;;9.50;99.90;;;;;;5022871;28;20047;-58
2023/04/24 10:37:48;;;;;;;19.67;3.90;;;9.50;99.90;;;;;;5039872;28;20456;-59
2023/04/24 10:40:18;;;;;;;15.00;3.47;;;9.50;99.90;;;;;;5022695;28;20053;-58
2023/04/24 10:42:48;;;;;;;10.75;3.38;;;9.60;99.90;;;;;;5039514;28;20398;-59
2023/04/24 10:45:22;;;;;;;16.17;3.30;;;9.80;99.90;;;;;;5040413;28;20037;-58
2023/04/24 10:48:02;;;;;;;13.05;2.97;;;9.90;99.90;;;;;;5040575;28;20105;-58
2023/04/24 10:50:30;;;;;;;14.23;3.88;;;10.00;99.90;;;;;;5039630;28;20049;-58
2023/04/24 10:53:06;;;;;;;11.77;3.22;;;10.20;99.90;;;;;;5040207;28;20094;-59
2023/04/24 10:55:49;;;;;;;15.38;3.05;;;10.30;99.90;;;;;;5039476;28;20537;-58
2023/04/24 10:58:16;;;;;;;9.68;2.50;;;10.40;99.90;;;;;;5040245;28;20073;-58
2023/04/24 11:00:44;;;;;;;10.45;3.08;;;10.40;99.90;;;;;;5021953;28;20523;-58
2023/04/24 11:03:30;;;;;;;11.85;2.70;;;10.50;99.90;;;;;;5039285;28;20068;-59
2023/04/24 11:06:06;;;;;;;12.35;3.45;;;10.40;99.90;;;;;;5040016;28;20042;-58
2023/04/24 11:08:45;;;;;;;8.55;2.40;;;10.40;99.90;;;;;;5005118;28;20103;-58
2023/04/24 11:11:13;;;;;;;6.93;1.90;;;10.40;99.90;;;;;;5040150;28;20463;-58
2023/04/24 11:13:56;;;;;;;8.23;2.30;;;10.40;99.90;;;;;;5038926;28;20428;-58
2023/04/24 11:16:50;;;;;;;6.13;2.05;;;10.40;99.90;;;;;;5021115;28;20560;-59
2023/04/24 11:19:18;;;;;;;9.52;2.17;;;10.30;99.90;;;;;;5040064;28;20037;-58
2023/04/24 11:21:48;;;;;;;9.68;2.80;;;10.30;99.90;;;;;;5039463;28;20057;-58
2023/04/24 11:24:28;;;;;;;11.30;2.70;;;10.40;99.90;;;;;;5039482;28;20076;-58
2023/04/24 11:27:11;;;;;;;11.45;2.58;;;10.40;99.90;;;;;;5039098;28;20041;-58
2023/04/24 11:29:47;;;;;;;8.90;2.10;;;10.40;99.90;;;;;;5038582;28;20057;-58
2023/04/24 11:32:18;;;;;;;12.25;2.35;;;10.30;99.90;;;;;;5039566;28;20041;-58
2023/04/24 11:34:53;;;;;;;10.35;2.47;;;10.30;99.90;;;;;;5038967;28;20046;-58
2023/04/24 11:37:18;;;;;;;7.05;2.33;;;10.20;99.90;;;;;;5038775;28;20106;-58
2023/04/24 11:39:44;;;;;;;11.13;3.20;;;10.20;99.90;;;;;;5039193;28;20120;-58
2023/04/24 11:42:10;;;;;;;10.10;2.40;;;10.10;99.90;;;;;;5038729;28;20061;-58
2023/04/24 11:44:39;;;;;;;13.57;2.92;;;10.00;99.90;;;;;;5038655;28;20529;-58
2023/04/24 11:47:06;;;;;;;7.85;2.25;;;9.90;99.90;;;;;;5038832;28;20033;-58
2023/04/24 11:49:32;;;;;;;10.98;1.80;;;9.90;99.90;;;;;;5039286;28;20037;-58
2023/04/24 11:52:00;;;;;;;3.83;1.55;;;9.90;99.90;;;;;;5038969;28;20081;-58
2023/04/24 11:54:26;;;;;;;3.70;1.30;;;9.90;99.90;;;;;;5038619;28;20072;-58
2023/04/24 11:56:52;;;;;;;5.10;1.60;;;9.90;99.90;;;;;;5039159;28;20069;-58
2023/04/24 11:59:18;;;;;;;5.32;1.50;;;9.90;99.90;;;;;;5038474;28;20540;-59
2023/04/24 12:01:47;;;;;;;5.53;1.50;;;9.90;99.90;;;;;;5038986;28;20069;-58
2023/04/24 12:04:14;;;;;;;4.38;1.67;;;9.90;99.90;;;;;;5038344;28;20040;-57
2023/04/24 12:06:40;;;;;;;6.40;1.98;;;9.90;99.90;;;;;;5039388;28;20057;-58
2023/04/24 12:09:07;;;;;;;5.43;1.42;;;10.00;99.90;;;;;;5038862;28;20045;-58
2023/04/24 12:11:32;;;;;;;13.68;2.05;;;10.10;99.90;;;;;;5038525;28;20048;-58
2023/04/24 12:14:10;;;;;;;5.80;1.38;;;10.20;99.90;;;;;;5020002;28;20057;-58
2023/04/24 12:16:35;;;;;;;8.25;1.85;;;10.40;99.90;;;;;;5038067;28;20105;-58
2023/04/24 12:19:02;;;;;;;5.22;1.50;;;10.50;99.90;;;;;;5038879;28;20033;-58
2023/04/24 12:21:30;;;;;;;4.75;1.40;;;10.50;99.90;;;;;;5038626;28;20042;-57
2023/04/24 12:23:56;;;;;;;3.83;1.33;;;10.40;99.90;;;;;;5020810;28;20118;-58
2023/04/24 12:26:22;;;;;;;4.90;1.40;;;10.30;99.90;;;;;;5039092;28;20042;-58
2023/04/24 12:28:49;;;;;;;3.80;1.00;;;10.20;99.90;;;;;;5020436;28;20057;-58
2023/04/24 12:31:21;;;;;;;5.78;1.58;;;10.10;99.90;;;;;;5038537;28;20075;-58
2023/04/24 12:33:46;;;;;;;4.50;1.10;;;10.40;99.90;;;;;;5038128;28;20041;-58
2023/04/24 12:36:12;;;;;;;4.80;1.10;;;9.90;99.90;;;;;;5039053;28;20053;-58
2023/04/24 12:38:44;;;;;;;5.63;1.23;;;9.90;99.90;;;;;;5038255;28;20060;-58
2023/04/24 12:41:11;;;;;;;4.60;1.30;;;9.80;99.90;;;;;;5021042;28;20101;-58
2023/04/24 12:43:37;;;;;;;6.35;2.03;;;9.70;99.90;;;;;;5038078;28;20129;-58
2023/04/24 12:46:04;;;;;;;8.88;1.83;;;9.80;99.90;;;;;;5040030;28;20073;-58
2023/04/24 12:48:31;;;;;;;7.93;1.77;;;9.80;99.90;;;;;;5024497;28;20087;-58